Time;durP1;ratioP1;P1;durP2;ratioP2;P2;SDS_P1;SDS_P2;PMS_P1;PMS_P2;Temp;Humidity;BMP_temperature;BMP_pressure;BME280_temperature;BME280_humidity;BME280_pressure;Samples;Min_cycle;Max_cycle;Signal;HPM_P1;HPM_P2
2020/12/17 00:00:24;;;;;;;4.97;4.47;;;15.20;99.90;;;15.49;53.33;101064.06;4889001;28;98921;-60
2020/12/17 00:02:50;;;;;;;7.47;6.73;;;15.20;99.90;;;15.50;53.60;101052.50;4876998;28;97281;-55
2020/12/17 00:05:17;;;;;;;8.43;5.33;;;15.30;99.90;;;15.74;52.46;101051.25;4894012;28;98964;-56
2020/12/17 00:07:43;;;;;;;7.73;6.30;;;15.50;99.40;;;15.57;52.85;101064.53;4915859;28;100526;-53
2020/12/17 00:10:11;;;;;;;7.10;6.40;;;15.40;99.90;;;15.52;53.04;101053.25;4899415;28;98115;-55
2020/12/17 00:12:44;;;;;;;6.40;5.80;;;15.20;99.90;;;15.47;53.52;101057.94;4882446;28;101867;-56
2020/12/17 00:15:14;;;;;;;4.03;3.67;;;15.10;99.90;;;15.50;53.27;101051.63;4900096;28;97061;-55
2020/12/17 00:17:49;;;;;;;6.20;4.47;;;15.20;99.90;;;15.65;52.89;101042.91;4868167;28;106866;-55
2020/12/17 00:20:18;;;;;;;5.70;4.93;;;15.30;99.90;;;15.64;52.55;101050.03;4899004;28;98926;-55
2020/12/17 00:22:44;;;;;;;5.13;4.63;;;15.40;99.90;;;15.70;52.58;101049.72;4896520;28;97085;-55
2020/12/17 00:25:12;;;;;;;4.20;3.80;;;15.40;99.80;;;15.66;52.84;101048.16;4899543;28;98299;-54
2020/12/17 00:27:40;;;;;;;8.30;5.50;;;15.40;99.90;;;15.63;53.32;101048.31;4882434;28;97667;-57
2020/12/17 00:30:14;;;;;;;4.40;4.00;;;15.30;99.90;;;15.59;53.52;101046.72;4883990;28;100107;-56
2020/12/17 00:32:41;;;;;;;6.43;5.50;;;15.20;99.90;;;15.48;54.13;101067.66;4897368;28;110137;-53
2020/12/17 00:35:08;;;;;;;5.00;4.47;;;15.10;99.90;;;15.44;53.70;101064.25;4900287;28;97959;-56
2020/12/17 00:37:35;;;;;;;5.80;4.07;;;15.00;99.90;;;15.47;54.03;101055.28;4881645;28;100434;-56
2020/12/17 00:40:04;;;;;;;5.33;4.33;;;15.00;99.90;;;15.47;54.37;101049.97;4901011;28;97287;-57
2020/12/17 00:42:30;;;;;;;3.90;3.57;;;15.00;99.90;;;15.59;53.10;101036.09;4884809;28;103479;-57
2020/12/17 00:44:56;;;;;;;5.80;4.30;;;15.20;99.90;;;15.66;52.84;101034.00;4885049;28;98250;-57
2020/12/17 00:47:27;;;;;;;3.27;2.97;;;15.30;99.90;;;15.73;52.45;101032.72;4886056;28;103582;-54
2020/12/17 00:49:53;;;;;;;3.33;3.00;;;15.30;99.90;;;15.72;52.92;101037.19;4896740;28;101196;-54
2020/12/17 00:52:22;;;;;;;6.67;4.67;;;15.40;99.90;;;15.82;52.12;101042.06;4902811;28;100392;-55
2020/12/17 00:54:48;;;;;;;3.97;3.57;;;15.50;99.90;;;15.93;51.89;101035.25;4882365;28;98600;-52
2020/12/17 00:57:14;;;;;;;3.40;3.10;;;15.70;99.40;;;16.04;51.63;101032.00;4898682;28;98313;-56
2020/12/17 00:59:40;;;;;;;3.23;2.93;;;15.80;99.20;;;16.09;51.31;101024.66;4877593;28;110448;-62
2020/12/17 01:02:06;;;;;;;2.97;2.70;;;15.90;99.10;;;16.08;51.58;101038.91;4886047;28;99498;-58
2020/12/17 01:04:32;;;;;;;4.30;3.90;;;15.80;99.20;;;16.01;51.77;101022.38;4868569;28;107210;-63
2020/12/17 01:06:58;;;;;;;5.63;3.50;;;15.70;99.80;;;15.89;52.45;101031.00;4892517;28;99723;-59
2020/12/17 01:09:23;;;;;;;6.03;4.40;;;15.50;99.90;;;15.78;52.48;101030.72;4866823;28;108372;-54
2020/12/17 01:11:49;;;;;;;4.13;3.67;;;15.40;99.90;;;15.77;52.69;101031.66;4914312;28;98131;-62
2020/12/17 01:14:15;;;;;;;4.70;4.30;;;15.40;99.90;;;15.75;52.82;101031.72;4888326;28;96972;-55
2020/12/17 01:16:46;;;;;;;5.37;4.50;;;15.40;99.90;;;15.59;53.67;101030.75;4900335;28;99883;-60
2020/12/17 01:19:12;;;;;;;6.47;4.40;;;15.20;99.90;;;15.54;53.99;101032.78;4874113;28;103689;-57
2020/12/17 01:21:38;;;;;;;5.07;4.57;;;15.10;99.90;;;15.51;53.79;101027.63;4897783;28;97416;-56
2020/12/17 01:24:03;;;;;;;5.23;4.20;;;15.10;99.90;;;15.51;53.59;101035.59;4894817;28;96905;-57
2020/12/17 01:26:29;;;;;;;6.70;4.73;;;15.00;99.90;;;15.29;54.26;101038.44;4881663;28;108965;-56
2020/12/17 01:28:55;;;;;;;6.13;4.50;;;14.80;99.90;;;15.24;55.18;101034.31;4899839;28;98734;-59
2020/12/17 01:31:21;;;;;;;6.63;4.53;;;14.70;99.90;;;15.09;55.72;101036.78;4876600;28;98708;-59
2020/12/17 01:33:47;;;;;;;5.50;4.50;;;14.60;99.90;;;14.87;56.12;101039.56;4880226;28;97635;-54
2020/12/17 01:36:13;;;;;;;5.20;4.70;;;14.40;99.90;;;14.78;56.76;101052.44;4877530;28;100084;-61
2020/12/17 01:38:40;;;;;;;5.50;4.87;;;14.30;99.90;;;14.65;57.12;101057.47;4879246;28;99051;-55
2020/12/17 01:41:11;;;;;;;5.33;4.83;;;14.20;99.90;;;14.48;58.04;101058.25;4894005;28;98817;-61
2020/12/17 01:43:39;;;;;;;5.30;4.20;;;14.10;99.90;;;14.41;58.11;101061.19;4909884;28;98698;-59
2020/12/17 01:46:06;;;;;;;6.93;4.70;;;14.00;99.90;;;14.34;58.61;101063.28;4881531;28;106368;-58
2020/12/17 01:48:33;;;;;;;5.53;4.90;;;13.90;99.90;;;14.23;59.12;101058.44;4891481;28;97291;-59
2020/12/17 01:51:00;;;;;;;5.50;4.97;;;13.80;99.90;;;14.14;59.50;101073.88;4879578;28;110374;-58
2020/12/17 01:53:25;;;;;;;7.10;5.03;;;13.70;99.90;;;14.07;60.12;101075.09;4889124;28;98646;-54
2020/12/17 01:56:01;;;;;;;7.03;5.00;;;13.70;99.90;;;13.93;60.88;101078.34;4900039;28;117135;-56
2020/12/17 01:58:31;;;;;;;6.27;4.73;;;13.60;99.90;;;13.94;60.55;101075.63;4896504;28;98274;-60
2020/12/17 02:01:00;;;;;;;6.80;5.13;;;13.60;99.90;;;13.85;60.67;101085.75;4898504;28;99099;-61
2020/12/17 02:03:26;;;;;;;6.03;4.53;;;13.50;99.90;;;13.78;60.69;101094.91;4877526;28;105475;-61
2020/12/17 02:05:52;;;;;;;8.97;4.97;;;13.40;99.90;;;13.75;60.74;101090.59;4902055;28;103160;-56
2020/12/17 02:08:19;;;;;;;7.40;4.63;;;13.40;99.90;;;13.78;61.17;101090.47;4878308;28;98373;-56
2020/12/17 02:10:46;;;;;;;5.83;5.10;;;13.50;99.90;;;13.92;60.10;101068.66;4900263;28;97044;-55
2020/12/17 02:13:12;;;;;;;4.73;3.80;;;13.60;99.90;;;14.09;58.46;101067.94;4883827;28;98192;-56
2020/12/17 02:15:38;;;;;;;5.30;4.60;;;13.60;99.90;;;13.99;59.68;101068.31;4914736;28;100023;-54
2020/12/17 02:18:06;;;;;;;5.67;4.60;;;13.60;99.90;;;14.03;58.90;101063.72;4880149;28;98585;-56
2020/12/17 02:20:32;;;;;;;5.00;3.97;;;13.60;99.90;;;13.89;60.61;101071.47;4893941;28;97604;-55
2020/12/17 02:23:00;;;;;;;6.67;5.10;;;13.60;99.90;;;13.90;60.59;101076.69;4894228;28;97995;-55
2020/12/17 02:25:25;;;;;;;5.33;4.83;;;13.50;99.90;;;13.93;59.69;101065.94;4901877;28;99803;-54
2020/12/17 02:27:51;;;;;;;7.67;5.27;;;13.50;99.90;;;13.91;60.79;101067.81;4887414;28;107002;-59
2020/12/17 02:30:17;;;;;;;6.53;4.70;;;13.50;99.90;;;14.00;58.93;101059.44;4897357;28;99106;-56
2020/12/17 02:32:43;;;;;;;4.30;3.63;;;13.60;99.90;;;14.13;59.25;101058.91;4912205;28;97860;-56
2020/12/17 02:35:09;;;;;;;6.53;3.73;;;13.80;99.90;;;14.17;59.27;101049.88;4889542;28;99767;-56
2020/12/17 02:37:36;;;;;;;4.73;3.70;;;13.80;99.90;;;14.29;58.20;101044.03;4897907;28;99670;-55
2020/12/17 02:40:04;;;;;;;4.47;4.07;;;13.90;99.90;;;14.38;58.17;101042.75;4882702;28;98000;-56
2020/12/17 02:42:29;;;;;;;6.60;4.20;;;14.00;99.90;;;14.39;57.40;101045.34;4902191;28;97765;-56
2020/12/17 02:44:55;;;;;;;2.87;2.63;;;14.00;99.90;;;14.51;57.49;101039.50;4900089;28;101767;-60
2020/12/17 02:47:21;;;;;;;5.73;4.20;;;14.10;99.90;;;14.60;56.90;101038.19;4898752;28;109481;-56
2020/12/17 02:49:48;;;;;;;3.83;3.50;;;14.20;99.90;;;14.85;55.53;101037.94;4886916;28;98417;-56
2020/12/17 02:52:14;;;;;;;4.40;3.90;;;14.60;99.90;;;14.94;55.40;101037.50;4894976;28;103976;-55
2020/12/17 02:54:39;;;;;;;3.50;2.40;;;14.60;99.90;;;15.07;55.25;101037.78;4898179;28;100534;-53
2020/12/17 02:57:05;;;;;;;4.40;3.93;;;14.70;99.90;;;15.15;54.78;101036.44;4910974;28;105172;-56
2020/12/17 02:59:31;;;;;;;4.90;3.83;;;14.90;99.90;;;15.05;54.98;101035.19;4892332;28;97758;-54
2020/12/17 03:01:57;;;;;;;3.83;3.33;;;14.70;99.90;;;15.13;55.09;101037.47;4913578;28;97157;-55
2020/12/17 03:04:22;;;;;;;4.53;3.67;;;14.80;99.90;;;14.97;56.01;101040.00;4908151;28;97739;-52
2020/12/17 03:06:48;;;;;;;3.90;3.50;;;14.70;99.90;;;14.83;56.33;101045.13;4894075;28;108577;-55
2020/12/17 03:09:14;;;;;;;5.07;4.30;;;14.50;99.90;;;14.86;55.66;101039.66;4911109;28;96754;-56
2020/12/17 03:11:40;;;;;;;5.37;4.20;;;14.40;99.90;;;14.90;56.06;101046.56;4900026;28;101089;-56
2020/12/17 03:14:06;;;;;;;4.40;4.00;;;14.50;99.90;;;14.73;56.28;101049.97;4911874;28;97510;-57
2020/12/17 03:16:32;;;;;;;5.60;4.37;;;14.30;99.90;;;14.69;56.87;101048.41;4904387;28;109742;-55
2020/12/17 03:19:01;;;;;;;4.53;4.10;;;14.20;99.90;;;14.64;57.37;101052.22;4916062;28;97821;-60
2020/12/17 03:21:27;;;;;;;4.03;3.03;;;14.20;99.90;;;14.72;56.03;101050.06;4888090;28;97527;-57
2020/12/17 03:23:53;;;;;;;4.77;4.00;;;14.20;99.90;;;14.85;55.64;101048.56;4892185;28;103427;-55
2020/12/17 03:26:19;;;;;;;6.80;4.00;;;14.40;99.90;;;14.81;55.94;101036.38;4897674;28;109844;-55
2020/12/17 03:28:44;;;;;;;4.47;3.67;;;14.40;99.90;;;14.82;56.27;101043.41;4898846;28;98736;-59
2020/12/17 03:31:10;;;;;;;3.97;3.57;;;14.50;99.90;;;14.85;55.71;101049.41;4898033;28;98460;-59
2020/12/17 03:33:36;;;;;;;7.13;4.43;;;14.50;99.90;;;14.75;56.64;101047.25;4909687;28;97580;-55
2020/12/17 03:36:03;;;;;;;6.30;4.40;;;14.40;99.90;;;14.87;55.46;101049.34;4909871;28;98162;-56
2020/12/17 03:38:29;;;;;;;3.10;2.80;;;14.50;99.90;;;15.06;55.11;101050.22;4909815;28;98229;-56
2020/12/17 03:40:55;;;;;;;3.73;3.27;;;14.70;99.90;;;15.12;54.75;101047.25;4927146;28;97017;-58
2020/12/17 03:43:21;;;;;;;5.37;4.30;;;14.80;99.90;;;15.25;54.08;101049.31;4884221;28;100934;-61
2020/12/17 03:45:46;;;;;;;4.00;3.33;;;15.00;99.90;;;15.11;54.91;101050.84;4912300;28;98022;-59
2020/12/17 03:48:12;;;;;;;6.00;3.23;;;14.80;99.90;;;15.11;54.88;101044.66;4912717;28;100643;-57
2020/12/17 03:50:38;;;;;;;2.83;2.10;;;14.80;99.90;;;15.45;53.60;101034.09;4916424;28;112882;-57
2020/12/17 03:53:03;;;;;;;5.20;3.93;;;15.10;99.90;;;15.52;52.99;101026.69;4890890;28;99111;-59
2020/12/17 03:55:29;;;;;;;5.43;4.33;;;15.30;99.90;;;15.46;53.57;101034.94;4908172;28;98394;-54
2020/12/17 03:57:55;;;;;;;4.47;4.07;;;15.20;99.90;;;15.30;54.69;101039.31;4899656;28;97304;-57
2020/12/17 04:00:21;;;;;;;3.50;2.93;;;15.10;99.90;;;15.35;53.73;101042.63;4904583;28;97243;-55
2020/12/17 04:02:46;;;;;;;2.53;2.33;;;14.90;99.90;;;15.25;54.47;101041.34;4898511;28;101834;-57
2020/12/17 04:05:12;;;;;;;4.97;3.97;;;14.90;99.90;;;15.23;54.08;101036.09;4911537;28;98681;-59
2020/12/17 04:07:38;;;;;;;5.37;3.70;;;14.90;99.90;;;15.12;55.21;101031.28;4912799;28;96928;-56
2020/12/17 04:10:04;;;;;;;4.13;3.37;;;14.80;99.90;;;15.07;55.13;101028.00;4914856;28;96827;-52
2020/12/17 04:12:31;;;;;;;5.57;3.70;;;14.60;99.90;;;14.93;55.76;101030.47;4909618;28;98711;-52
2020/12/17 04:14:56;;;;;;;5.97;4.80;;;14.50;99.90;;;14.78;55.99;101026.75;4906517;28;99848;-57
2020/12/17 04:17:22;;;;;;;6.63;4.73;;;14.40;99.90;;;14.74;56.05;101024.28;4929934;28;99717;-59
2020/12/17 04:19:48;;;;;;;5.50;3.50;;;14.40;99.90;;;14.78;56.17;101015.28;4906675;28;125100;-55
2020/12/17 04:22:16;;;;;;;7.53;5.27;;;14.40;99.90;;;14.76;55.72;101017.13;4915779;28;100087;-57
2020/12/17 04:24:47;;;;;;;8.07;5.50;;;14.30;99.90;;;14.70;55.99;101028.03;4894117;28;105968;-54
2020/12/17 04:27:13;;;;;;;6.43;4.83;;;14.20;99.90;;;14.61;56.27;101036.41;4916769;28;96689;-55
2020/12/17 04:29:39;;;;;;;5.53;3.97;;;14.20;99.90;;;14.55;56.50;101035.78;4880498;28;97159;-56
2020/12/17 04:32:05;;;;;;;5.17;3.90;;;14.20;99.90;;;14.61;56.86;101033.75;4914087;28;98737;-56
2020/12/17 04:34:31;;;;;;;3.90;3.23;;;14.20;99.90;;;14.71;56.18;101041.22;4912469;28;99148;-55
2020/12/17 04:36:58;;;;;;;4.53;4.13;;;14.30;99.90;;;14.59;56.29;101045.31;4904010;28;97507;-56
2020/12/17 04:39:24;;;;;;;3.90;3.23;;;14.20;99.90;;;14.65;56.50;101038.00;4878930;28;97775;-57
2020/12/17 04:41:52;;;;;;;5.67;4.23;;;14.20;99.90;;;14.53;56.61;101042.94;4910569;28;99656;-55
2020/12/17 04:44:19;;;;;;;6.53;4.50;;;14.10;99.90;;;14.48;56.56;101046.75;4912343;28;96912;-52
2020/12/17 04:46:56;;;;;;;5.50;3.80;;;14.10;99.90;;;14.46;56.45;101049.47;4902916;28;109059;-56
2020/12/17 04:49:27;;;;;;;5.63;4.57;;;14.10;99.90;;;14.41;57.25;101063.84;4925648;28;97629;-57
2020/12/17 04:51:57;;;;;;;5.90;4.90;;;14.00;99.90;;;14.31;57.25;101058.06;4895815;28;98598;-55
2020/12/17 04:54:24;;;;;;;4.27;3.73;;;13.90;99.90;;;14.30;57.48;101059.00;4892380;28;99595;-51
2020/12/17 04:57:12;;;;;;;3.43;2.73;;;13.90;99.90;;;14.51;56.76;101054.56;4902344;28;106550;-57
2020/12/17 04:59:46;;;;;;;5.83;4.27;;;14.10;99.90;;;14.43;56.83;101052.22;4915002;28;97378;-56
2020/12/17 05:02:14;;;;;;;6.40;4.70;;;14.20;99.90;;;14.38;57.21;101056.88;4897563;28;108387;-57
2020/12/17 05:04:45;;;;;;;6.40;5.27;;;14.10;99.90;;;14.39;57.31;101066.56;4903447;28;98106;-55
2020/12/17 05:07:17;;;;;;;5.03;4.53;;;14.00;99.90;;;14.43;57.05;101059.31;4907908;28;96920;-57
2020/12/17 05:09:45;;;;;;;6.67;4.77;;;14.00;99.90;;;14.41;57.15;101056.75;4906027;28;97210;-57
2020/12/17 05:12:12;;;;;;;6.70;4.70;;;14.00;99.90;;;14.39;57.27;101058.59;4891281;28;98734;-55
2020/12/17 05:14:39;;;;;;;7.23;5.10;;;14.00;99.90;;;14.35;57.21;101066.78;4914980;28;97330;-55
2020/12/17 05:17:05;;;;;;;4.70;3.53;;;14.00;99.90;;;14.39;57.41;101066.56;4897702;28;98802;-56
2020/12/17 05:19:32;;;;;;;3.93;3.37;;;14.00;99.90;;;14.48;57.12;101076.81;4923055;28;97105;-56
2020/12/17 05:22:01;;;;;;;4.53;3.43;;;14.10;99.90;;;14.44;57.39;101072.56;4895667;28;104162;-57
2020/12/17 05:24:28;;;;;;;4.70;4.20;;;14.00;99.90;;;14.48;56.74;101079.47;4891216;28;99485;-57
2020/12/17 05:26:57;;;;;;;5.20;4.70;;;14.10;99.90;;;14.39;57.15;101081.63;4895447;28;97986;-55
2020/12/17 05:29:24;;;;;;;5.40;4.73;;;14.10;99.90;;;14.44;56.97;101084.97;4912436;28;96945;-61
2020/12/17 05:31:51;;;;;;;6.17;4.37;;;14.00;99.90;;;14.41;56.88;101096.56;4899678;28;102663;-56
2020/12/17 05:34:17;;;;;;;4.43;3.87;;;14.00;99.90;;;14.48;56.90;101092.75;4908117;28;98670;-55
2020/12/17 05:36:47;;;;;;;5.13;4.63;;;14.10;99.90;;;14.45;56.82;101098.16;4906197;28;98476;-57
2020/12/17 05:39:17;;;;;;;4.03;3.20;;;14.10;99.90;;;14.45;56.62;101103.47;4915273;28;97162;-57
2020/12/17 05:41:47;;;;;;;5.60;4.57;;;14.10;99.90;;;14.37;57.12;101104.72;4909116;28;99206;-55
2020/12/17 05:44:18;;;;;;;5.10;4.60;;;14.00;99.90;;;14.38;56.97;101104.66;4886004;28;100171;-56
2020/12/17 05:46:47;;;;;;;8.07;5.53;;;14.00;99.90;;;14.32;57.58;101107.59;4909073;28;96864;-55
2020/12/17 05:49:19;;;;;;;3.77;3.47;;;14.00;99.90;;;14.45;56.85;101102.59;4899088;28;97560;-54
2020/12/17 05:51:46;;;;;;;8.27;5.37;;;14.00;99.90;;;14.26;57.36;101103.41;4928598;28;98480;-61
2020/12/17 05:54:24;;;;;;;5.80;5.13;;;13.90;99.90;;;14.30;57.42;101097.03;4913469;28;102918;-56
2020/12/17 05:57:07;;;;;;;5.43;4.93;;;13.90;99.90;;;14.37;57.38;101100.28;4906928;28;96879;-61
2020/12/17 05:59:33;;;;;;;6.00;4.93;;;13.90;99.90;;;14.29;57.20;101097.09;4901710;28;98253;-56
2020/12/17 06:02:24;;;;;;;6.87;5.17;;;13.90;99.90;;;14.41;56.71;101101.00;4910420;28;100750;-56
2020/12/17 06:05:12;;;;;;;5.50;4.97;;;14.00;99.90;;;14.34;57.24;101102.22;4895791;28;96893;-55
2020/12/17 06:07:49;;;;;;;5.30;4.27;;;14.00;99.90;;;14.42;57.23;101110.69;4899779;28;96935;-56
2020/12/17 06:10:20;;;;;;;9.97;5.53;;;14.00;99.90;;;14.34;57.07;101111.03;4896691;28;96868;-57
2020/12/17 06:12:49;;;;;;;6.67;5.53;;;14.00;99.90;;;14.24;57.98;101112.38;4937797;28;96925;-56
2020/12/17 06:15:21;;;;;;;9.23;5.37;;;13.90;99.90;;;14.29;57.93;101126.28;4894386;28;98460;-56
2020/12/17 06:17:51;;;;;;;6.77;4.90;;;13.90;99.90;;;14.28;57.28;101116.59;4912582;28;97371;-56
2020/12/17 06:20:17;;;;;;;4.47;3.10;;;13.90;99.90;;;14.36;57.32;101135.72;4891412;28;97560;-57
2020/12/17 06:22:54;;;;;;;5.93;4.77;;;13.90;99.90;;;14.33;57.74;101135.84;4915505;28;97107;-56
2020/12/17 06:25:21;;;;;;;6.57;5.30;;;13.90;99.90;;;14.37;57.46;101147.19;4895240;28;98403;-55
2020/12/17 06:27:49;;;;;;;5.10;4.60;;;13.90;99.90;;;14.30;57.92;101152.75;4920550;28;96859;-54
2020/12/17 06:30:20;;;;;;;5.97;5.37;;;13.90;99.90;;;14.29;58.35;101147.50;4887989;28;97371;-56
2020/12/17 06:32:48;;;;;;;5.27;4.77;;;13.90;99.90;;;14.39;57.48;101151.50;4914601;28;97750;-54
2020/12/17 06:35:28;;;;;;;7.90;5.07;;;13.90;99.90;;;14.43;57.67;101147.78;4906008;28;98733;-54
2020/12/17 06:37:57;;;;;;;6.70;6.00;;;14.00;99.90;;;14.32;58.72;101158.03;4930041;28;96741;-57
2020/12/17 06:40:30;;;;;;;5.77;4.80;;;14.00;99.90;;;14.29;59.16;101155.47;4900630;28;97169;-56
2020/12/17 06:42:56;;;;;;;7.30;5.10;;;13.90;99.90;;;14.15;59.94;101169.31;4915630;28;97913;-57
2020/12/17 06:45:33;;;;;;;9.60;5.67;;;13.80;99.90;;;14.11;60.08;101167.75;4908771;28;96862;-57
2020/12/17 06:47:59;;;;;;;7.73;5.57;;;13.70;99.90;;;13.96;60.89;101163.94;4913005;28;97015;-57
2020/12/17 06:50:30;;;;;;;10.17;6.63;;;13.60;99.90;;;13.85;61.89;101171.47;4915009;28;96935;-56
2020/12/17 06:53:12;;;;;;;8.40;6.53;;;13.50;99.90;;;13.82;62.06;101181.34;4899428;28;106438;-53
2020/12/17 06:55:39;;;;;;;8.20;6.40;;;13.40;99.90;;;13.74;62.39;101194.91;4919924;28;97080;-57
2020/12/17 06:58:05;;;;;;;8.07;6.13;;;13.40;99.90;;;13.63;63.67;101202.44;4883199;28;109153;-56
2020/12/17 07:00:31;;;;;;;12.73;7.17;;;13.30;99.90;;;13.61;63.08;101201.63;4919764;28;98359;-56
2020/12/17 07:02:57;;;;;;;11.37;8.10;;;13.20;99.90;;;13.52;63.44;101212.59;4898151;28;109409;-57
2020/12/17 07:05:36;;;;;;;11.63;7.97;;;13.20;99.90;;;13.55;63.79;101225.72;4912607;28;97092;-57
2020/12/17 07:08:03;;;;;;;11.13;8.20;;;13.20;99.90;;;13.65;61.23;101227.94;4876067;28;96515;-55
2020/12/17 07:10:31;;;;;;;7.87;6.77;;;13.30;99.90;;;13.61;63.46;101236.09;4897642;28;97061;-57
2020/12/17 07:12:58;;;;;;;8.70;7.50;;;13.40;99.90;;;13.63;62.93;101239.56;4904929;28;102358;-57
2020/12/17 07:15:38;;;;;;;11.27;8.20;;;13.30;99.90;;;13.65;63.50;101243.00;4919550;28;98977;-56
2020/12/17 07:18:26;;;;;;;9.53;8.13;;;13.40;99.90;;;13.73;63.66;101246.19;4885850;28;97271;-57
2020/12/17 07:21:14;;;;;;;9.57;7.77;;;13.50;99.90;;;13.73;64.05;101240.88;4909560;28;97438;-56
2020/12/17 07:23:40;;;;;;;10.60;8.00;;;13.40;99.90;;;13.71;63.93;101250.69;4986097;23;104247;-56
2020/12/17 07:26:14;;;;;;;10.10;8.37;;;13.50;99.90;;;13.68;63.53;101254.34;4908957;28;99411;-56
2020/12/17 07:28:41;;;;;;;10.63;8.50;;;13.40;99.90;;;13.64;64.16;101258.03;4894841;28;97136;-53
2020/12/17 07:31:07;;;;;;;14.03;9.63;;;13.40;99.90;;;13.63;64.33;101268.72;4917112;28;96919;-55
2020/12/17 07:33:36;;;;;;;11.80;8.87;;;13.40;99.90;;;13.65;64.57;101280.13;4899837;28;97351;-57
2020/12/17 07:36:03;;;;;;;12.33;10.17;;;13.30;99.90;;;13.58;64.46;101275.94;4935763;28;97773;-57
2020/12/17 07:38:29;;;;;;;12.27;9.53;;;13.30;99.90;;;13.52;64.74;101287.66;4916541;28;99841;-57
2020/12/17 07:40:55;;;;;;;12.17;9.73;;;13.30;99.90;;;13.50;65.16;101293.94;4932031;28;98569;-57
2020/12/17 07:43:24;;;;;;;12.87;9.57;;;13.20;99.90;;;13.50;65.55;101291.31;4904857;28;110308;-56
2020/12/17 07:45:56;;;;;;;10.90;9.07;;;13.20;99.90;;;13.49;65.00;101297.53;4934083;28;97101;-55
2020/12/17 07:48:46;;;;;;;13.53;9.20;;;13.20;99.90;;;13.50;64.87;101297.47;4910244;28;98998;-55
2020/12/17 07:51:17;;;;;;;13.67;8.47;;;13.20;99.90;;;13.53;64.69;101307.09;4915136;28;97061;-55
2020/12/17 07:53:52;;;;;;;11.47;8.97;;;13.20;99.90;;;13.50;65.46;101309.84;4905338;28;100804;-56
2020/12/17 07:56:20;;;;;;;10.70;8.57;;;13.20;99.90;;;13.57;62.70;101306.03;4915060;28;97262;-57
2020/12/17 07:58:47;;;;;;;10.83;7.87;;;13.20;99.90;;;13.54;64.39;101314.97;4916970;28;97065;-55
2020/12/17 08:01:14;;;;;;;12.30;8.40;;;13.30;99.90;;;13.50;64.94;101317.81;4925674;28;97473;-56
2020/12/17 08:03:52;;;;;;;8.83;7.20;;;13.20;99.90;;;13.50;65.08;101313.38;4924062;28;97804;-57
2020/12/17 08:06:27;;;;;;;10.40;7.17;;;13.30;99.90;;;13.46;64.87;101325.00;4892431;28;99972;-56
2020/12/17 08:08:59;;;;;;;12.10;6.67;;;13.20;99.90;;;13.49;65.05;101321.38;4921199;28;96955;-57
2020/12/17 08:11:25;;;;;;;11.00;7.43;;;13.20;99.90;;;13.47;65.00;101329.38;4902721;28;97945;-55
2020/12/17 08:14:08;;;;;;;6.90;6.03;;;13.20;99.90;;;13.45;64.74;101330.34;4935011;28;97268;-57
2020/12/17 08:16:35;;;;;;;9.73;6.10;;;13.20;99.90;;;13.44;64.02;101340.06;4906376;28;100985;-56
2020/12/17 08:19:02;;;;;;;12.53;5.93;;;13.20;99.90;;;13.45;64.87;101340.94;4923616;28;96992;-56
2020/12/17 08:21:29;;;;;;;9.57;5.67;;;13.20;99.90;;;13.47;64.23;101340.00;4916208;28;104511;-57
2020/12/17 08:23:55;;;;;;;5.90;4.93;;;13.20;99.90;;;13.44;64.46;101349.81;4907243;28;99113;-56
2020/12/17 08:26:27;;;;;;;10.17;5.50;;;13.20;99.90;;;13.49;62.75;101348.75;4911184;28;97315;-55
2020/12/17 08:28:53;;;;;;;8.80;5.03;;;13.20;99.90;;;13.43;64.47;101358.69;4923422;28;96858;-55
2020/12/17 08:31:23;;;;;;;6.80;4.80;;;13.20;99.90;;;13.46;64.38;101355.94;4896649;28;119870;-53
2020/12/17 08:33:56;;;;;;;10.47;4.67;;;13.20;99.90;;;13.42;64.39;101363.13;4917776;28;98623;-56
2020/12/17 08:36:32;;;;;;;6.20;3.87;;;13.20;99.90;;;13.38;64.32;101372.97;4896495;28;98766;-57
2020/12/17 08:39:13;;;;;;;4.37;3.73;;;13.10;99.90;;;13.35;64.15;101373.09;4918333;28;97064;-55
2020/12/17 08:41:48;;;;;;;6.67;3.07;;;13.10;99.90;;;13.39;63.65;101379.13;4901247;28;99047;-56
2020/12/17 08:44:21;;;;;;;6.93;3.23;;;13.10;99.90;;;13.32;64.08;101388.25;4913169;28;98418;-54
2020/12/17 08:46:53;;;;;;;7.63;3.13;;;13.10;99.90;;;13.34;64.56;101397.00;4882018;28;97300;-56
2020/12/17 08:49:26;;;;;;;3.77;2.90;;;13.10;99.90;;;13.43;63.42;101401.94;4914662;28;96946;-57
2020/12/17 08:51:51;;;;;;;5.60;2.67;;;13.10;99.90;;;13.44;63.77;101413.41;4901247;28;97495;-56
2020/12/17 08:54:32;;;;;;;4.50;2.47;;;13.10;99.90;;;13.40;63.01;101413.53;4915750;28;98327;-57
2020/12/17 08:57:12;;;;;;;2.77;2.10;;;13.10;99.90;;;13.50;61.80;101415.88;4915580;28;97158;-57
2020/12/17 08:59:39;;;;;;;4.03;2.70;;;13.20;99.90;;;13.51;62.47;101414.94;4894998;28;97194;-57
2020/12/17 09:02:06;;;;;;;5.87;2.47;;;13.20;99.90;;;13.45;62.30;101423.09;4907794;28;97623;-56
2020/12/17 09:04:31;;;;;;;14.43;12.33;;;13.20;99.90;;;13.41;62.89;101425.00;4918344;28;97749;-57
2020/12/17 09:07:02;;;;;;;4.53;2.90;;;13.10;99.90;;;13.39;62.41;101426.84;4900767;28;99143;-57
2020/12/17 09:09:33;;;;;;;3.63;2.50;;;13.10;99.90;;;13.37;62.32;101429.56;4901588;28;97753;-57
2020/12/17 09:12:00;;;;;;;4.60;1.97;;;13.10;99.90;;;13.38;62.10;101436.56;4918106;28;97352;-56
2020/12/17 09:14:38;;;;;;;8.33;2.27;;;13.10;99.90;;;13.39;61.49;101442.75;4902363;28;104227;-56
2020/12/17 09:17:15;;;;;;;4.50;2.57;;;13.10;99.90;;;13.36;61.51;101443.72;4893212;28;100285;-57
2020/12/17 09:19:43;;;;;;;4.63;2.20;;;13.10;99.90;;;13.34;61.10;101450.88;4904287;28;107414;-57
2020/12/17 09:22:10;;;;;;;7.17;2.50;;;13.10;99.90;;;13.39;61.90;101446.25;4913085;28;96974;-57
2020/12/17 09:24:41;;;;;;;4.70;1.90;;;13.10;99.90;;;13.39;61.04;101454.22;4901125;28;108451;-57
2020/12/17 09:27:23;;;;;;;4.60;1.97;;;13.10;99.90;;;13.39;61.27;101451.56;4905460;28;97412;-60
2020/12/17 09:30:07;;;;;;;3.83;2.10;;;13.20;99.90;;;13.37;61.10;101456.03;4900236;28;118375;-57
2020/12/17 09:32:39;;;;;;;4.00;2.23;;;13.10;99.90;;;13.40;60.79;101463.88;4912218;28;97242;-57
2020/12/17 09:35:11;;;;;;;4.30;1.80;;;13.10;99.90;;;13.38;61.42;101468.38;4905088;28;98802;-55
2020/12/17 09:37:39;;;;;;;5.50;2.60;;;13.20;99.90;;;13.50;60.47;101464.44;4913348;28;96895;-57
2020/12/17 09:40:09;;;;;;;5.53;2.10;;;13.20;99.90;;;13.46;60.47;101464.63;4907254;28;110457;-57
2020/12/17 09:42:36;;;;;;;3.57;2.30;;;13.20;99.90;;;13.51;60.44;101467.97;4914069;28;96756;-56
2020/12/17 09:45:13;;;;;;;1.63;1.37;;;13.30;99.90;;;13.49;59.28;101469.81;4917659;28;97771;-57
2020/12/17 09:47:39;;;;;;;2.07;1.40;;;13.20;99.90;;;13.47;59.58;101471.66;4909737;28;97257;-57
2020/12/17 09:50:15;;;;;;;2.90;1.67;;;13.20;99.90;;;13.51;60.10;101481.22;4918940;28;97031;-55
2020/12/17 09:52:42;;;;;;;4.47;2.07;;;13.30;99.90;;;13.52;60.12;101480.28;4916896;28;97449;-57
2020/12/17 09:55:08;;;;;;;3.40;1.90;;;13.30;99.90;;;13.57;59.95;101478.34;4905674;28;97282;-57
2020/12/17 09:57:43;;;;;;;5.37;2.23;;;13.30;99.90;;;13.61;60.38;101487.94;4920827;28;98530;-57
2020/12/17 10:00:14;;;;;;;2.07;1.43;;;13.40;99.90;;;13.69;60.09;101493.81;4898948;28;97874;-56
2020/12/17 10:02:42;;;;;;;3.27;1.70;;;13.50;99.90;;;13.69;59.68;101493.81;4920235;28;99723;-57
2020/12/17 10:05:11;;;;;;;2.77;1.77;;;13.50;99.90;;;13.70;60.40;101500.84;4898051;28;102335;-55
2020/12/17 10:07:37;;;;;;;4.53;2.57;;;13.50;99.90;;;13.72;59.20;101509.59;4913149;28;98409;-56
2020/12/17 10:10:04;;;;;;;5.93;5.33;;;13.50;99.90;;;13.76;59.74;101508.59;4895814;28;98370;-56
2020/12/17 10:12:30;;;;;;;3.80;2.27;;;13.60;99.90;;;13.79;58.91;101520.88;4874654;28;101906;-56
2020/12/17 10:14:56;;;;;;;2.53;1.93;;;13.60;99.90;;;13.82;58.92;101511.03;4896388;28;98664;-56
2020/12/17 10:17:21;;;;;;;2.37;2.10;;;13.60;99.90;;;13.85;58.68;101518.88;4884195;28;113358;-54